createdAt,value
2023-04-09T00:01:07.151Z,9.01
2023-04-09T00:03:37.356Z,8.97
2023-04-09T00:06:06.155Z,8.92
2023-04-09T00:08:34.387Z,8.91
2023-04-09T00:11:02.845Z,8.88
2023-04-09T00:13:39.232Z,8.85
2023-04-09T00:16:08.917Z,8.81
2023-04-09T00:18:37.510Z,8.78
2023-04-09T00:21:05.868Z,8.74
2023-04-09T00:23:34.527Z,8.68
2023-04-09T00:26:02.818Z,8.63
2023-04-09T00:28:31.521Z,8.57
2023-04-09T00:30:59.696Z,8.51
2023-04-09T00:33:27.997Z,8.47
2023-04-09T00:42:33.816Z,8.38
2023-04-09T00:45:02.380Z,8.37
2023-04-09T00:47:31.188Z,8.35
2023-04-09T00:50:01.468Z,8.33
2023-04-09T00:52:31.151Z,8.31
2023-04-09T00:55:01.350Z,8.29
2023-04-09T00:57:29.460Z,8.26
2023-04-09T00:59:57.871Z,8.25
2023-04-09T01:02:26.856Z,8.25
2023-04-09T01:04:55.374Z,8.27
2023-04-09T01:08:02.437Z,8.27
2023-04-09T01:10:47.794Z,8.24
2023-04-09T01:13:24.636Z,8.22
2023-04-09T01:15:57.310Z,8.18
2023-04-09T01:18:49.302Z,8.14
2023-04-09T01:21:22.577Z,8.09
2023-04-09T01:24:11.120Z,8.06
2023-04-09T01:27:08.366Z,8.06
2023-04-09T01:29:53.725Z,8.05
2023-04-09T01:32:23.290Z,8.02
2023-04-09T01:34:52.120Z,8.02
2023-04-09T01:37:21.022Z,8.05
2023-04-09T01:39:49.164Z,8.05
2023-04-09T01:42:18.586Z,8.06
2023-04-09T01:44:47.023Z,8.05
2023-04-09T01:47:16.008Z,8.04
2023-04-09T01:49:45.022Z,8.02
2023-04-09T01:52:13.498Z,8.02
2023-04-09T01:54:42.926Z,8.01
2023-04-09T01:57:11.476Z,8.02
2023-04-09T01:59:39.582Z,8.03
2023-04-09T02:02:17.872Z,8.04
2023-04-09T02:04:49.485Z,8.06
2023-04-09T02:07:22.825Z,8.10
2023-04-09T02:09:53.617Z,8.13
2023-04-09T02:12:22.387Z,8.17
2023-04-09T02:14:52.314Z,8.22
2023-04-09T02:17:20.961Z,8.24
2023-04-09T02:19:49.615Z,8.28
2023-04-09T02:22:17.941Z,8.34
2023-04-09T02:24:49.139Z,8.39
2023-04-09T02:27:17.448Z,8.41
2023-04-09T02:29:45.671Z,8.43
2023-04-09T02:32:14.185Z,8.47
2023-04-09T02:34:42.610Z,8.51
2023-04-09T02:37:11.021Z,8.55
2023-04-09T02:39:39.164Z,8.58
2023-04-09T02:42:08.100Z,8.65
2023-04-09T02:44:36.356Z,8.70
2023-04-09T02:47:04.613Z,8.74
2023-04-09T02:49:33.145Z,8.78
2023-04-09T02:52:01.258Z,8.81
2023-04-09T02:54:29.609Z,8.86
2023-04-09T02:56:57.657Z,8.92
2023-04-09T02:59:25.749Z,8.98
2023-04-09T03:01:54.225Z,9.04
2023-04-09T03:04:22.598Z,9.07
2023-04-09T03:06:51.723Z,9.10
2023-04-09T03:09:19.929Z,9.13
2023-04-09T03:11:48.211Z,9.13
2023-04-09T03:14:16.381Z,9.13
2023-04-09T03:16:46.194Z,9.13
2023-04-09T03:19:14.362Z,9.11
2023-04-09T03:21:43.198Z,9.08
2023-04-09T03:24:12.437Z,9.04
2023-04-09T03:26:41.570Z,8.99
2023-04-09T03:29:10.334Z,8.93
2023-04-09T03:31:38.503Z,8.92
2023-04-09T03:34:06.814Z,8.90
2023-04-09T03:36:35.083Z,8.87
2023-04-09T03:39:11.965Z,8.83
2023-04-09T03:41:43.427Z,8.80
2023-04-09T03:44:15.393Z,8.74
2023-04-09T03:46:56.743Z,8.71
2023-04-09T03:49:25.438Z,8.68
2023-04-09T03:51:54.668Z,8.67
2023-04-09T03:54:24.686Z,8.65
2023-04-09T03:56:54.311Z,8.66
2023-04-09T03:59:24.452Z,8.70
2023-04-09T04:01:53.352Z,8.72
2023-04-09T04:04:23.775Z,8.74
2023-04-09T04:06:56.791Z,8.76
2023-04-09T04:09:34.294Z,8.80
2023-04-09T04:12:06.612Z,8.82
2023-04-09T04:14:53.081Z,8.82
2023-04-09T04:17:33.225Z,8.84
2023-04-09T04:20:02.537Z,8.84
2023-04-09T04:22:35.820Z,8.82
2023-04-09T04:25:05.209Z,8.78
2023-04-09T04:27:33.409Z,8.75
2023-04-09T04:30:02.525Z,8.70
2023-04-09T04:32:53.778Z,8.64
2023-04-09T04:35:23.053Z,8.58
2023-04-09T04:37:54.079Z,8.54
2023-04-09T04:40:22.493Z,8.48
2023-04-09T04:42:53.131Z,8.39
2023-04-09T04:45:21.561Z,8.30
2023-04-09T04:47:53.059Z,8.21
2023-04-09T04:50:21.426Z,8.14
2023-04-09T04:52:59.763Z,8.10
2023-04-09T04:55:31.221Z,8.10
2023-04-09T04:58:01.497Z,8.11
2023-04-09T05:00:31.793Z,8.11
2023-04-09T05:03:02.019Z,8.11
2023-04-09T05:05:59.956Z,8.08
2023-04-09T05:08:31.034Z,8.05
2023-04-09T05:10:59.478Z,8.04
2023-04-09T05:13:33.547Z,8.05
2023-04-09T05:16:02.731Z,8.05
2023-04-09T05:18:32.241Z,8.05
2023-04-09T05:21:00.867Z,8.07
2023-04-09T05:23:30.532Z,8.09
2023-04-09T05:25:58.584Z,8.09
2023-04-09T05:28:44.913Z,8.06
2023-04-09T05:31:17.376Z,8.01
2023-04-09T05:33:58.056Z,7.96
2023-04-09T05:36:34.686Z,7.95
2023-04-09T05:39:03.579Z,7.94
2023-04-09T05:41:33.669Z,7.94
2023-04-09T05:44:20.633Z,7.93
2023-04-09T05:46:49.865Z,7.92
2023-04-09T05:49:20.933Z,7.93
2023-04-09T05:51:51.715Z,7.95
2023-04-09T05:54:26.215Z,7.99
2023-04-09T05:56:54.429Z,8.02
2023-04-09T05:59:23.084Z,8.05
2023-04-09T06:01:51.509Z,8.08
2023-04-09T06:04:19.762Z,8.14
2023-04-09T06:06:48.236Z,8.18
2023-04-09T06:09:16.496Z,8.21
2023-04-09T06:11:44.570Z,8.23
2023-04-09T06:14:16.590Z,8.23
2023-04-09T06:16:44.876Z,8.21
2023-04-09T06:19:16.836Z,8.20
2023-04-09T06:21:44.981Z,8.21
2023-04-09T06:24:13.182Z,8.21
2023-04-09T06:26:41.622Z,8.21
2023-04-09T06:29:09.740Z,8.21
2023-04-09T06:31:38.244Z,8.22
2023-04-09T06:34:06.684Z,8.21
2023-04-09T06:36:37.739Z,8.21
2023-04-09T06:39:06.880Z,8.22
2023-04-09T06:41:34.970Z,8.21
2023-04-09T06:44:08.422Z,8.22
2023-04-09T06:46:36.741Z,8.25
2023-04-09T06:49:04.786Z,8.28
2023-04-09T06:51:32.958Z,8.33
2023-04-09T06:54:01.267Z,8.38
2023-04-09T06:56:29.301Z,8.42
2023-04-09T06:58:57.671Z,8.48
2023-04-09T07:01:26.616Z,8.53
2023-04-09T07:03:55.324Z,8.60
2023-04-09T07:06:24.082Z,8.66
2023-04-09T07:08:52.797Z,8.72
2023-04-09T07:11:21.639Z,8.77
2023-04-09T07:13:50.581Z,8.84
2023-04-09T07:16:18.764Z,8.89
2023-04-09T07:18:47.112Z,8.92
2023-04-09T07:21:16.475Z,8.92
2023-04-09T07:23:44.999Z,8.94
2023-04-09T07:26:13.090Z,8.93
2023-04-09T07:28:42.314Z,8.93
2023-04-09T07:31:11.603Z,8.95
2023-04-09T07:33:39.805Z,8.98
2023-04-09T07:36:08.767Z,9.01
2023-04-09T07:38:37.172Z,9.06
2023-04-09T07:41:05.799Z,9.09
2023-04-09T07:43:34.028Z,9.11
2023-04-09T07:46:02.258Z,9.09
2023-04-09T07:48:30.531Z,9.09
2023-04-09T07:50:58.662Z,9.06
2023-04-09T07:53:26.859Z,9.05
2023-04-09T07:55:54.982Z,9.05
2023-04-09T07:58:23.197Z,9.09
2023-04-09T08:00:51.456Z,9.14
2023-04-09T08:03:19.750Z,9.19
2023-04-09T08:05:48.606Z,9.25
2023-04-09T08:08:17.158Z,9.32
2023-04-09T08:10:45.377Z,9.37
2023-04-09T08:13:13.544Z,9.40
2023-04-09T08:15:41.951Z,9.44
2023-04-09T08:18:10.174Z,9.50
2023-04-09T08:20:45.127Z,9.60
2023-04-09T08:23:14.030Z,9.71
2023-04-09T08:25:42.110Z,9.80
2023-04-09T08:28:10.284Z,9.89
2023-04-09T08:30:38.739Z,9.94
2023-04-09T08:33:07.114Z,9.97
2023-04-09T08:35:35.302Z,9.99
2023-04-09T08:38:03.360Z,9.94
2023-04-09T08:40:35.024Z,9.91
2023-04-09T08:43:09.425Z,9.88
2023-04-09T08:45:41.185Z,9.85
2023-04-09T08:48:14.031Z,9.84
2023-04-09T08:50:42.440Z,9.89
2023-04-09T08:53:11.235Z,9.93
2023-04-09T08:55:45.755Z,9.92
2023-04-09T08:58:14.507Z,9.89
2023-04-09T09:00:43.049Z,9.91
2023-04-09T09:03:15.407Z,9.97
2023-04-09T09:05:44.480Z,10.04
2023-04-09T09:08:23.321Z,10.08
2023-04-09T09:10:52.018Z,10.15
2023-04-09T09:13:25.287Z,10.18
2023-04-09T09:16:03.343Z,10.20
2023-04-09T09:18:42.396Z,10.23
2023-04-09T09:21:12.151Z,10.27
2023-04-09T09:23:40.527Z,10.34
2023-04-09T09:26:18.383Z,10.41
2023-04-09T09:28:48.444Z,10.49
2023-04-09T09:31:18.814Z,10.53
2023-04-09T09:33:48.647Z,10.58
2023-04-09T09:36:33.724Z,10.64
2023-04-09T09:39:10.052Z,10.68
2023-04-09T09:41:38.829Z,10.72
2023-04-09T09:44:08.942Z,10.78
2023-04-09T09:46:39.563Z,10.84
2023-04-09T09:49:08.963Z,10.91
2023-04-09T09:51:39.717Z,10.98
2023-04-09T09:54:13.055Z,11.01
2023-04-09T09:56:44.161Z,11.06
2023-04-09T09:59:34.577Z,11.08
2023-04-09T10:02:11.228Z,11.07
2023-04-09T10:04:40.752Z,10.98
2023-04-09T10:07:09.270Z,10.69
2023-04-09T10:09:46.042Z,10.42
2023-04-09T10:12:14.447Z,10.23
2023-04-09T10:14:43.638Z,10.14
2023-04-09T10:17:12.111Z,10.08
2023-04-09T10:19:46.363Z,10.04
2023-04-09T10:22:21.640Z,10.01
2023-04-09T10:24:51.497Z,9.99
2023-04-09T10:27:19.677Z,9.97
2023-04-09T10:29:49.473Z,9.93
2023-04-09T10:32:26.866Z,9.93
2023-04-09T10:35:01.776Z,9.96
2023-04-09T10:37:30.178Z,9.98
2023-04-09T10:39:58.832Z,9.99
2023-04-09T10:42:32.869Z,10.00
2023-04-09T10:45:12.384Z,10.01
2023-04-09T10:47:42.934Z,10.05
2023-04-09T10:50:24.108Z,10.10
2023-04-09T10:52:54.727Z,10.17
2023-04-09T10:55:38.393Z,10.23
2023-04-09T10:58:11.328Z,10.26
2023-04-09T11:00:45.545Z,10.26
2023-04-09T11:03:32.862Z,10.29
2023-04-09T11:06:09.478Z,10.32
2023-04-09T11:08:38.985Z,10.34
2023-04-09T11:11:07.431Z,10.37
2023-04-09T11:13:35.651Z,10.38
2023-04-09T11:16:07.219Z,10.38
2023-04-09T11:18:37.170Z,10.36
2023-04-09T11:21:06.023Z,10.34
2023-04-09T11:23:34.901Z,10.34
2023-04-09T11:26:03.127Z,10.35
2023-04-09T11:28:31.452Z,10.36
2023-04-09T11:30:59.590Z,10.39
2023-04-09T11:33:34.565Z,10.43
2023-04-09T11:36:05.910Z,10.50
2023-04-09T11:38:34.047Z,10.57
2023-04-09T11:41:02.436Z,10.64
2023-04-09T11:43:30.625Z,10.70
2023-04-09T11:45:59.579Z,10.75
2023-04-09T11:48:28.032Z,10.79
2023-04-09T11:50:57.267Z,10.80
2023-04-09T11:53:30.997Z,10.82
2023-04-09T11:55:59.393Z,10.81
2023-04-09T11:58:28.167Z,10.81
2023-04-09T12:00:58.967Z,10.81
2023-04-09T12:03:33.480Z,10.82
2023-04-09T12:06:03.365Z,10.84
2023-04-09T12:08:35.697Z,10.85
2023-04-09T12:11:15.796Z,10.87
2023-04-09T12:13:45.850Z,10.86
2023-04-09T12:16:14.652Z,10.84
2023-04-09T12:18:43.123Z,10.82
2023-04-09T12:21:11.504Z,10.79
2023-04-09T12:23:39.863Z,10.77
2023-04-09T12:26:08.230Z,10.74
2023-04-09T12:28:36.331Z,10.73
2023-04-09T12:31:04.486Z,10.73
2023-04-09T12:33:32.623Z,10.74
2023-04-09T12:36:00.792Z,10.75
2023-04-09T12:38:29.076Z,10.76
2023-04-09T12:40:57.294Z,10.76
2023-04-09T12:43:25.522Z,10.78
2023-04-09T12:45:53.582Z,10.80
2023-04-09T12:48:21.698Z,10.81
2023-04-09T12:50:49.781Z,10.79
2023-04-09T12:53:18.527Z,10.77
2023-04-09T12:55:47.012Z,10.71
2023-04-09T12:58:15.649Z,10.63
2023-04-09T13:00:43.803Z,10.59
2023-04-09T13:03:12.556Z,10.61
2023-04-09T13:05:40.832Z,10.65
2023-04-09T13:08:08.973Z,10.70
2023-04-09T13:10:37.052Z,10.75
2023-04-09T13:13:06.345Z,10.79
2023-04-09T13:15:34.574Z,10.82
2023-04-09T13:18:03.230Z,10.80
2023-04-09T13:20:31.559Z,10.78
2023-04-09T13:22:59.865Z,10.77
2023-04-09T13:25:27.979Z,10.71
2023-04-09T13:27:56.184Z,10.64
2023-04-09T13:30:24.617Z,10.61
2023-04-09T13:32:52.688Z,10.54
2023-04-09T13:35:21.040Z,10.42
2023-04-09T13:37:49.145Z,10.30
2023-04-09T13:40:17.320Z,10.25
2023-04-09T13:42:45.464Z,10.30
2023-04-09T13:45:13.551Z,10.41
2023-04-09T13:47:43.144Z,10.56
2023-04-09T13:50:13.335Z,10.73
2023-04-09T13:52:41.459Z,10.82
2023-04-09T13:55:09.879Z,10.88
2023-04-09T13:57:38.102Z,11.01
2023-04-09T14:00:08.290Z,11.13
2023-04-09T14:02:36.520Z,11.26
2023-04-09T14:05:05.148Z,11.42
2023-04-09T14:07:33.480Z,11.59
2023-04-09T14:10:01.970Z,11.71
2023-04-09T14:12:30.159Z,11.81
2023-04-09T14:14:58.466Z,11.90
2023-04-09T14:17:26.886Z,11.97
2023-04-09T14:19:55.074Z,12.05
2023-04-09T14:22:23.183Z,12.09
2023-04-09T14:24:51.537Z,12.14
2023-04-09T14:27:19.684Z,12.23
2023-04-09T14:29:48.375Z,12.32
2023-04-09T14:32:16.494Z,12.33
2023-04-09T14:34:44.985Z,12.38
2023-04-09T14:37:13.069Z,12.50
2023-04-09T14:39:41.127Z,12.68
2023-04-09T14:42:09.317Z,12.87
2023-04-09T14:44:37.482Z,13.07
2023-04-09T14:47:05.562Z,13.26
2023-04-09T14:49:34.090Z,13.43
2023-04-09T14:52:02.311Z,13.58
2023-04-09T14:54:31.506Z,13.63
2023-04-09T14:56:59.893Z,13.71
2023-04-09T14:59:28.199Z,13.75
2023-04-09T15:01:56.440Z,13.82
2023-04-09T15:04:25.028Z,13.91
2023-04-09T15:06:53.572Z,13.99
2023-04-09T15:09:21.605Z,13.99
2023-04-09T15:11:49.649Z,13.94
2023-04-09T15:14:17.898Z,13.94
2023-04-09T15:16:46.174Z,14.00
2023-04-09T15:19:14.420Z,14.07
2023-04-09T15:21:43.344Z,14.08
2023-04-09T15:24:11.641Z,13.99
2023-04-09T15:26:39.782Z,13.90
2023-04-09T15:29:08.431Z,13.87
2023-04-09T15:31:38.454Z,13.77
2023-04-09T15:34:07.732Z,13.62
2023-04-09T15:36:36.056Z,13.46
2023-04-09T15:39:07.075Z,13.33
2023-04-09T15:41:35.312Z,13.30
2023-04-09T15:44:04.086Z,13.30
2023-04-09T15:46:32.126Z,13.34
2023-04-09T15:49:01.231Z,13.43
2023-04-09T15:51:29.388Z,13.52
2023-04-09T15:53:58.362Z,13.57
2023-04-09T15:56:26.454Z,13.60
2023-04-09T15:58:55.103Z,13.61
2023-04-09T16:01:23.488Z,13.63
2023-04-09T16:03:52.459Z,13.65
2023-04-09T16:06:21.212Z,13.60
2023-04-09T16:08:49.561Z,13.57
2023-04-09T16:11:18.072Z,13.58
2023-04-09T16:13:46.373Z,13.55
2023-04-09T16:16:14.671Z,13.51
2023-04-09T16:18:42.861Z,13.46
2023-04-09T16:21:11.305Z,13.42
2023-04-09T16:23:39.902Z,13.33
2023-04-09T16:26:08.178Z,13.23
2023-04-09T16:28:36.545Z,13.07
2023-04-09T16:31:04.784Z,12.81
2023-04-09T16:33:33.098Z,12.56
2023-04-09T16:36:01.290Z,12.43
2023-04-09T16:38:31.116Z,12.25
2023-04-09T16:40:59.517Z,12.05
2023-04-09T16:43:27.757Z,11.87
2023-04-09T16:45:55.825Z,11.64
2023-04-09T16:48:24.226Z,11.44
2023-04-09T16:50:52.723Z,11.33
2023-04-09T16:53:21.040Z,11.20
2023-04-09T16:55:49.188Z,11.02
2023-04-09T16:58:17.682Z,10.84
2023-04-09T17:00:47.206Z,10.69
2023-04-09T17:03:16.527Z,10.53
2023-04-09T17:05:49.429Z,10.38
2023-04-09T17:08:18.698Z,10.19
2023-04-09T17:10:46.898Z,10.06
2023-04-09T17:13:15.057Z,9.95
2023-04-09T17:15:43.708Z,9.83
2023-04-09T17:18:12.188Z,9.72
2023-04-09T17:20:40.580Z,9.59
2023-04-09T17:23:08.927Z,9.45
2023-04-09T17:25:37.738Z,9.31
2023-04-09T17:28:06.249Z,9.14
2023-04-09T17:30:35.036Z,8.95
2023-04-09T17:33:03.554Z,8.77
2023-04-09T17:35:32.746Z,8.62
2023-04-09T17:38:01.770Z,8.47
2023-04-09T17:40:30.476Z,8.35
2023-04-09T17:43:00.196Z,8.23
2023-04-09T17:45:28.466Z,8.12
2023-04-09T17:47:57.310Z,8.02
2023-04-09T17:50:25.521Z,7.94
2023-04-09T17:52:53.663Z,7.93
2023-04-09T17:55:23.410Z,8.11
2023-04-09T17:57:51.891Z,8.30
2023-04-09T18:00:20.622Z,8.44
2023-04-09T18:02:52.271Z,8.55
2023-04-09T18:05:22.147Z,8.63
2023-04-09T18:07:51.659Z,8.68
2023-04-09T18:10:21.301Z,8.71
2023-04-09T18:12:49.343Z,8.75
2023-04-09T18:15:18.817Z,8.78
2023-04-09T18:17:48.267Z,8.79
2023-04-09T18:20:17.316Z,8.80
2023-04-09T18:22:45.564Z,8.82
2023-04-09T18:25:13.880Z,8.81
2023-04-09T18:27:42.339Z,8.80
2023-04-09T18:30:11.072Z,8.78
2023-04-09T18:32:39.847Z,8.76
2023-04-09T18:35:08.501Z,8.74
2023-04-09T18:37:38.127Z,8.74
2023-04-09T18:40:12.584Z,8.74
2023-04-09T18:42:41.162Z,8.70
2023-04-09T18:45:09.835Z,8.67
2023-04-09T18:47:38.906Z,8.67
2023-04-09T18:50:08.084Z,8.69
2023-04-09T18:52:39.035Z,8.71
2023-04-09T18:55:07.624Z,8.71
2023-04-09T18:57:36.304Z,8.72
2023-04-09T19:00:06.334Z,8.72
2023-04-09T19:02:34.874Z,8.71
2023-04-09T19:05:07.279Z,8.68
2023-04-09T19:07:38.112Z,8.62
2023-04-09T19:10:07.133Z,8.59
2023-04-09T19:12:35.313Z,8.55
2023-04-09T19:15:04.908Z,8.51
2023-04-09T19:17:34.157Z,8.46
2023-04-09T19:20:03.135Z,8.42
2023-04-09T19:22:31.932Z,8.39
2023-04-09T19:25:00.009Z,8.37
2023-04-09T19:27:28.634Z,8.37
2023-04-09T19:29:58.986Z,8.36
2023-04-09T19:32:27.682Z,8.33
2023-04-09T19:34:56.327Z,8.30
2023-04-09T19:37:28.168Z,8.27
2023-04-09T19:39:57.869Z,8.22
2023-04-09T19:42:28.767Z,8.18
2023-04-09T19:44:56.907Z,8.15
2023-04-09T19:47:25.080Z,8.15
2023-04-09T19:49:54.737Z,8.15
2023-04-09T19:52:23.066Z,8.13
2023-04-09T19:54:57.902Z,8.10
2023-04-09T19:57:26.632Z,8.09
2023-04-09T19:59:55.617Z,8.08
2023-04-09T20:02:24.213Z,8.07
2023-04-09T20:04:52.488Z,8.07
2023-04-09T20:07:20.669Z,8.08
2023-04-09T20:09:49.700Z,8.08
2023-04-09T20:12:17.987Z,8.08
2023-04-09T20:14:46.657Z,8.05
2023-04-09T20:17:14.775Z,8.04
2023-04-09T20:19:42.822Z,8.01
2023-04-09T20:22:10.996Z,7.97
2023-04-09T20:24:39.102Z,7.95
2023-04-09T20:27:07.459Z,7.92
2023-04-09T20:29:35.568Z,7.90
2023-04-09T20:32:03.787Z,7.87
2023-04-09T20:34:32.779Z,7.84
2023-04-09T20:37:01.744Z,7.80
2023-04-09T20:39:31.360Z,7.77
2023-04-09T20:41:59.550Z,7.73
2023-04-09T20:44:28.850Z,7.70
2023-04-09T20:46:56.989Z,7.67
2023-04-09T20:49:25.137Z,7.63
2023-04-09T20:51:53.294Z,7.61
2023-04-09T20:54:23.229Z,7.59
2023-04-09T20:56:51.436Z,7.57
2023-04-09T20:59:19.709Z,7.57
2023-04-09T21:01:48.609Z,7.58
2023-04-09T21:04:17.064Z,7.58
2023-04-09T21:06:45.415Z,7.57
2023-04-09T21:09:13.974Z,7.56
2023-04-09T21:11:42.051Z,7.54
2023-04-09T21:14:11.202Z,7.53
2023-04-09T21:16:39.606Z,7.52
2023-04-09T21:19:08.155Z,7.50
2023-04-09T21:21:37.181Z,7.46
2023-04-09T21:24:05.484Z,7.44
2023-04-09T21:26:45.331Z,7.42
2023-04-09T21:29:21.445Z,7.42
2023-04-09T21:31:49.951Z,7.41
2023-04-09T21:34:18.380Z,7.40
2023-04-09T21:36:46.700Z,7.38
2023-04-09T21:39:15.029Z,7.36
2023-04-09T21:41:43.130Z,7.33
2023-04-09T21:44:11.274Z,7.30
2023-04-09T21:46:40.841Z,7.26
2023-04-09T21:49:09.406Z,7.23
2023-04-09T21:51:38.875Z,7.18
2023-04-09T21:54:08.812Z,7.15
2023-04-09T21:56:37.324Z,7.14
2023-04-09T21:59:05.704Z,7.14
2023-04-09T22:01:35.141Z,7.16
2023-04-09T22:04:03.871Z,7.19
2023-04-09T22:06:32.618Z,7.21
2023-04-09T22:09:01.849Z,7.24
2023-04-09T22:11:30.759Z,7.30
2023-04-09T22:13:58.976Z,7.37
2023-04-09T22:16:27.337Z,7.44
2023-04-09T22:18:56.309Z,7.49
2023-04-09T22:21:24.905Z,7.54
2023-04-09T22:23:53.723Z,7.58
2023-04-09T22:26:22.749Z,7.64
2023-04-09T22:28:51.118Z,7.71
2023-04-09T22:31:20.027Z,7.76
2023-04-09T22:33:48.269Z,7.82
2023-04-09T22:36:16.459Z,7.85
2023-04-09T22:38:44.729Z,7.89
2023-04-09T22:41:12.849Z,7.91
2023-04-09T22:43:41.249Z,7.93
2023-04-09T22:46:09.381Z,7.95
2023-04-09T22:48:44.153Z,7.95
2023-04-09T22:51:14.152Z,7.93
2023-04-09T22:53:42.254Z,7.93
2023-04-09T22:56:10.406Z,7.94
2023-04-09T22:58:39.193Z,7.95
2023-04-09T23:01:07.757Z,7.93
2023-04-09T23:03:36.043Z,7.91
2023-04-09T23:06:04.509Z,7.86
2023-04-09T23:08:32.709Z,7.79
2023-04-09T23:11:01.224Z,7.71
2023-04-09T23:13:29.507Z,7.63
2023-04-09T23:15:57.817Z,7.58
2023-04-09T23:18:26.198Z,7.52
2023-04-09T23:20:54.334Z,7.47
2023-04-09T23:23:22.513Z,7.40
2023-04-09T23:25:50.798Z,7.34
2023-04-09T23:28:18.885Z,7.28
2023-04-09T23:30:46.937Z,7.26
2023-04-09T23:33:15.036Z,7.19
2023-04-09T23:35:43.508Z,7.11
2023-04-09T23:38:11.735Z,7.04
2023-04-09T23:40:39.880Z,6.99
2023-04-09T23:43:08.027Z,6.96
2023-04-09T23:45:36.136Z,6.94
2023-04-09T23:48:06.243Z,6.94
2023-04-09T23:50:37.998Z,6.95
2023-04-09T23:53:06.781Z,6.96
2023-04-09T23:55:38.226Z,6.97
2023-04-09T23:58:06.457Z,6.99
